Time;durP1;ratioP1;P1;durP2;ratioP2;P2;SDS_P1;SDS_P2;PMS_P1;PMS_P2;Temp;Humidity;BMP_temperature;BMP_pressure;BME280_temperature;BME280_humidity;BME280_pressure;Samples;Min_cycle;Max_cycle;Signal;HPM_P1;HPM_P2
2023/10/14 00:01:07;;;;;;;15.70;6.80;;;16.80;99.90;;;;;;4988801;28;20488;-59
2023/10/14 00:03:34;;;;;;;13.50;6.57;;;16.80;99.90;;;;;;4992734;28;20465;-59
2023/10/14 00:06:05;;;;;;;15.00;7.53;;;16.80;99.90;;;;;;5000053;28;20566;-59
2023/10/14 00:08:33;;;;;;;11.10;6.00;;;16.70;99.90;;;;;;4996447;28;20467;-60
2023/10/14 00:11:05;;;;;;;14.17;6.90;;;16.80;99.90;;;;;;5002615;28;20448;-59
2023/10/14 00:13:40;;;;;;;15.43;7.27;;;16.70;99.90;;;;;;4988830;28;20488;-59
2023/10/14 00:16:11;;;;;;;16.57;6.37;;;16.70;99.90;;;;;;4999950;28;20483;-59
2023/10/14 00:18:42;;;;;;;17.43;6.40;;;16.70;85.80;;;;;;5000792;28;20487;-60
2023/10/14 00:21:12;;;;;;;20.47;7.80;;;16.80;23.90;;;;;;5003244;28;21019;-60
2023/10/14 00:23:38;;;;;;;16.27;6.97;;;16.80;25.10;;;;;;5002882;28;20455;-59
2023/10/14 00:26:07;;;;;;;17.90;6.90;;;16.90;28.60;;;;;;5004260;28;20479;-59
2023/10/14 00:28:45;;;;;;;13.23;7.33;;;16.90;40.80;;;;;;4996278;28;20463;-59
2023/10/14 00:31:11;;;;;;;22.50;6.80;;;16.90;40.30;;;;;;5004385;28;20464;-59
2023/10/14 00:33:38;;;;;;;13.73;6.80;;;16.90;33.00;;;;;;5001741;28;20472;-59
2023/10/14 00:36:10;;;;;;;13.97;7.00;;;16.90;78.40;;;;;;4997663;28;20524;-58
2023/10/14 00:38:43;;;;;;;10.57;7.20;;;16.80;99.90;;;;;;5003499;28;20460;-60
2023/10/14 00:41:10;;;;;;;16.40;6.60;;;16.80;99.90;;;;;;4994246;28;20473;-58
2023/10/14 00:43:39;;;;;;;14.53;8.07;;;16.70;99.90;;;;;;5000229;28;20599;-60
2023/10/14 00:46:14;;;;;;;16.53;6.20;;;16.60;99.90;;;;;;4997927;28;20856;-60
2023/10/14 00:48:41;;;;;;;23.20;6.73;;;16.50;99.90;;;;;;4995028;28;20466;-59
2023/10/14 00:51:10;;;;;;;12.63;6.70;;;16.50;99.90;;;;;;5003768;28;20473;-59
2023/10/14 00:53:40;;;;;;;7.60;6.20;;;16.50;99.90;;;;;;5001340;28;20519;-59
2023/10/14 00:56:10;;;;;;;10.30;5.93;;;16.60;99.90;;;;;;4994836;28;20483;-59
2023/10/14 00:58:41;;;;;;;16.20;6.17;;;16.60;99.90;;;;;;4997578;28;20494;-58
2023/10/14 01:01:09;;;;;;;8.60;5.30;;;16.60;87.40;;;;;;5010402;28;20541;-59
2023/10/14 01:03:36;;;;;;;10.00;5.77;;;16.70;42.30;;;;;;4991368;28;20491;-59
2023/10/14 01:06:15;;;;;;;9.20;5.33;;;16.80;51.30;;;;;;5005966;28;20543;-59
2023/10/14 01:08:43;;;;;;;11.27;5.93;;;16.90;57.90;;;;;;4994650;28;20559;-58
2023/10/14 01:11:09;;;;;;;6.60;5.40;;;16.90;65.00;;;;;;4988366;28;20476;-58
2023/10/14 01:13:37;;;;;;;10.27;5.70;;;17.00;69.50;;;;;;5006740;28;20503;-59
2023/10/14 01:16:08;;;;;;;8.53;5.00;;;17.00;75.70;;;;;;4998740;28;20579;-60
2023/10/14 01:18:39;;;;;;;13.03;5.73;;;17.10;80.40;;;;;;4990239;28;20468;-59
2023/10/14 01:21:06;;;;;;;13.93;5.53;;;17.00;73.30;;;;;;4998337;28;20483;-59
2023/10/14 01:23:35;;;;;;;8.17;5.57;;;17.10;79.60;;;;;;5005365;28;20970;-59
2023/10/14 01:26:04;;;;;;;9.70;5.10;;;17.10;88.40;;;;;;4996507;28;20856;-58
2023/10/14 01:28:31;;;;;;;15.77;5.20;;;17.10;86.80;;;;;;4993678;28;20475;-58
2023/10/14 01:31:25;;;;;;;10.40;5.67;;;17.10;85.30;;;;;;4991449;28;20464;-59
2023/10/14 01:33:51;;;;;;;17.53;5.90;;;17.20;90.30;;;;;;4989130;28;20863;-60
2023/10/14 01:36:20;;;;;;;14.90;5.83;;;17.10;89.60;;;;;;4997791;28;20545;-59
2023/10/14 01:38:57;;;;;;;19.27;5.40;;;17.10;92.50;;;;;;4986982;28;20469;-59
2023/10/14 01:41:24;;;;;;;11.53;4.80;;;17.10;89.30;;;;;;4991119;28;20465;-60
2023/10/14 01:43:51;;;;;;;8.00;4.70;;;17.10;88.60;;;;;;4991573;28;20460;-59
2023/10/14 01:46:18;;;;;;;15.80;4.70;;;17.10;86.90;;;;;;4999106;28;20491;-61
2023/10/14 01:48:51;;;;;;;14.90;5.97;;;17.20;96.50;;;;;;4996338;28;20464;-59
2023/10/14 01:51:19;;;;;;;21.07;5.37;;;17.10;89.30;;;;;;5001201;28;20933;-59
2023/10/14 01:53:46;;;;;;;9.57;4.70;;;17.00;85.50;;;;;;4998051;28;20523;-59
2023/10/14 01:56:17;;;;;;;13.93;4.60;;;17.00;82.00;;;;;;4993858;28;20519;-59
2023/10/14 01:58:45;;;;;;;15.17;5.23;;;17.00;81.90;;;;;;4993852;28;20537;-58
2023/10/14 02:01:15;;;;;;;9.33;5.70;;;17.00;81.00;;;;;;4991763;28;20468;-59
2023/10/14 02:03:43;;;;;;;20.80;5.40;;;17.00;81.10;;;;;;4991661;28;20457;-58
2023/10/14 02:06:16;;;;;;;21.83;5.50;;;17.10;86.90;;;;;;4990362;28;20981;-59
2023/10/14 02:08:43;;;;;;;8.87;5.50;;;17.20;82.40;;;;;;5002533;28;20439;-62
2023/10/14 02:11:10;;;;;;;15.13;4.60;;;17.00;76.70;;;;;;4994811;28;20463;-59
2023/10/14 02:13:38;;;;;;;8.03;5.20;;;17.00;67.60;;;;;;4992799;28;20480;-59
2023/10/14 02:16:07;;;;;;;9.33;4.70;;;16.90;57.70;;;;;;4993991;28;20507;-59
2023/10/14 02:18:36;;;;;;;10.57;4.63;;;16.80;50.90;;;;;;4999833;28;20993;-59
2023/10/14 02:21:08;;;;;;;12.73;4.90;;;16.80;45.30;;;;;;5003701;28;20517;-59
2023/10/14 02:23:44;;;;;;;14.23;5.40;;;16.70;32.60;;;;;;4995856;28;20953;-60
2023/10/14 02:26:22;;;;;;;8.73;4.80;;;16.60;27.00;;;;;;5000895;28;20487;-59
2023/10/14 02:28:52;;;;;;;16.00;4.63;;;16.70;27.70;;;;;;5008796;28;20466;-58
2023/10/14 02:31:29;;;;;;;5.33;4.20;;;16.70;38.40;;;;;;5002137;28;20510;-59
2023/10/14 02:33:56;;;;;;;13.87;6.00;;;16.80;39.00;;;;;;5006717;28;20484;-59
2023/10/14 02:36:28;;;;;;;15.30;5.00;;;16.80;39.70;;;;;;5013598;23;20576;-60
2023/10/14 02:38:56;;;;;;;8.80;4.87;;;16.80;43.90;;;;;;5010515;28;20461;-60
2023/10/14 02:41:26;;;;;;;9.93;4.97;;;16.80;44.80;;;;;;5013302;28;20460;-61
2023/10/14 02:44:01;;;;;;;9.57;4.57;;;17.00;62.70;;;;;;5007311;28;20455;-61
2023/10/14 02:46:28;;;;;;;16.27;4.43;;;17.10;67.40;;;;;;4990696;28;20476;-62
2023/10/14 02:48:55;;;;;;;8.50;4.20;;;17.10;64.20;;;;;;4991412;28;21013;-60
2023/10/14 02:51:29;;;;;;;12.87;4.37;;;17.20;75.50;;;;;;4990498;28;20460;-61
2023/10/14 02:54:04;;;;;;;15.17;5.43;;;17.20;78.60;;;;;;4990525;28;20575;-60
2023/10/14 02:56:43;;;;;;;8.07;4.70;;;17.40;99.90;;;;;;4990377;28;20569;-60
2023/10/14 02:59:15;;;;;;;7.93;4.47;;;17.50;99.90;;;;;;4990743;28;20555;-62
2023/10/14 03:01:43;;;;;;;9.37;4.20;;;17.60;99.90;;;;;;4986272;28;20476;-56
2023/10/14 03:04:11;;;;;;;6.13;3.93;;;17.70;99.90;;;;;;4983451;28;20452;-56
2023/10/14 03:06:46;;;;;;;6.33;3.80;;;17.70;99.90;;;;;;4989274;28;20620;-57
2023/10/14 03:09:17;;;;;;;6.90;3.73;;;17.70;99.90;;;;;;4993492;28;20463;-56
2023/10/14 03:11:44;;;;;;;10.20;4.43;;;17.80;99.90;;;;;;4987838;28;20958;-56
2023/10/14 03:14:12;;;;;;;9.90;4.17;;;17.90;99.90;;;;;;4989698;28;20484;-55
2023/10/14 03:16:38;;;;;;;8.40;4.10;;;18.10;99.90;;;;;;4989673;28;20483;-57
2023/10/14 03:19:05;;;;;;;9.50;5.00;;;18.20;99.90;;;;;;4990505;28;20954;-58
2023/10/14 03:21:33;;;;;;;6.80;4.07;;;18.20;99.90;;;;;;4989780;28;20460;-57
2023/10/14 03:24:00;;;;;;;11.23;5.23;;;18.30;99.90;;;;;;4989942;28;20891;-58
2023/10/14 03:26:32;;;;;;;20.93;5.07;;;18.30;99.90;;;;;;4987962;28;20484;-57
2023/10/14 03:29:04;;;;;;;8.73;4.50;;;18.30;99.90;;;;;;4987897;28;20511;-58
2023/10/14 03:31:35;;;;;;;5.80;4.10;;;18.50;99.90;;;;;;4988428;28;20475;-58
2023/10/14 03:34:08;;;;;;;8.43;4.47;;;18.60;99.90;;;;;;4988648;28;20516;-58
2023/10/14 03:36:35;;;;;;;13.73;4.90;;;18.60;99.90;;;;;;4986401;28;21021;-58
2023/10/14 03:39:17;;;;;;;13.13;4.30;;;18.60;99.90;;;;;;4990331;28;20735;-58
2023/10/14 03:41:44;;;;;;;9.33;5.30;;;18.70;99.90;;;;;;4989811;28;20472;-59
2023/10/14 03:44:12;;;;;;;13.93;4.67;;;18.80;99.90;;;;;;4988404;28;20523;-58
2023/10/14 03:46:42;;;;;;;15.70;4.60;;;18.80;99.90;;;;;;4985897;28;20582;-59
2023/10/14 03:49:20;;;;;;;6.53;4.00;;;18.80;99.90;;;;;;4990128;28;20465;-58
2023/10/14 03:51:49;;;;;;;7.77;3.80;;;18.90;99.90;;;;;;4984893;28;20472;-58
2023/10/14 03:54:23;;;;;;;8.03;4.23;;;18.90;76.70;;;;;;4988521;28;20488;-58
2023/10/14 03:56:50;;;;;;;13.03;5.30;;;18.90;21.10;;;;;;4986555;28;20484;-58
2023/10/14 03:59:21;;;;;;;8.53;4.27;;;18.90;23.10;;;;;;4984809;28;20499;-59
2023/10/14 04:01:54;;;;;;;15.23;4.67;;;19.00;25.50;;;;;;4992877;28;20555;-59
2023/10/14 04:04:23;;;;;;;7.17;4.63;;;19.00;31.70;;;;;;4992700;28;20471;-58
2023/10/14 04:07:13;;;;;;;11.23;4.30;;;19.00;32.20;;;;;;4994263;28;20488;-57
2023/10/14 04:09:43;;;;;;;11.13;4.43;;;19.00;35.20;;;;;;4995949;28;20453;-56
2023/10/14 04:12:21;;;;;;;10.80;4.90;;;19.00;32.20;;;;;;4991827;28;20595;-58
2023/10/14 04:14:54;;;;;;;9.83;5.00;;;19.10;39.80;;;;;;4988878;28;20583;-58
2023/10/14 04:17:30;;;;;;;13.10;5.00;;;19.10;32.70;;;;;;4989023;28;20461;-57
2023/10/14 04:20:14;;;;;;;17.30;5.50;;;19.00;35.40;;;;;;4993117;28;20444;-58
2023/10/14 04:22:41;;;;;;;14.37;6.00;;;19.10;38.40;;;;;;4988105;28;20475;-56
2023/10/14 04:25:18;;;;;;;8.17;5.10;;;19.20;40.10;;;;;;4990843;28;20977;-57
2023/10/14 04:28:17;;;;;;;15.77;4.90;;;19.10;37.70;;;;;;4991175;28;20487;-57
2023/10/14 04:30:38;;;;;;;15.17;6.53;;;19.20;44.90;;;;;;4988069;28;20476;-57
2023/10/14 04:33:17;;;;;;;14.67;5.53;;;19.20;46.10;;;;;;4989676;28;20574;-58
2023/10/14 04:35:57;;;;;;;13.70;5.63;;;19.30;49.60;;;;;;4987365;28;20510;-59
2023/10/14 04:38:28;;;;;;;14.83;6.17;;;19.30;52.10;;;;;;4988062;28;20465;-57
2023/10/14 04:40:58;;;;;;;19.80;5.07;;;19.50;59.70;;;;;;4991925;28;20468;-56
2023/10/14 04:43:49;;;;;;;26.37;7.20;;;19.50;28.20;;;;;;4988682;28;20469;-58
2023/10/14 04:46:19;;;;;;;12.20;6.60;;;19.00;99.90;;;;;;4990247;28;20516;-58
2023/10/14 04:48:51;;;;;;;10.50;4.67;;;18.30;99.90;;;;;;4992546;28;20465;-58
2023/10/14 04:51:19;;;;;;;10.43;3.77;;;17.60;61.20;;;;;;4992894;28;20460;-58
2023/10/14 04:53:48;;;;;;;8.47;3.00;;;17.00;31.20;;;;;;4990456;28;20468;-56
2023/10/14 04:56:21;;;;;;;5.90;2.30;;;16.70;21.50;;;;;;4986605;28;20496;-56
2023/10/14 04:58:52;;;;;;;8.60;2.23;;;16.40;99.90;;;;;;4987971;28;20472;-57
2023/10/14 05:01:19;;;;;;;5.23;1.60;;;16.20;99.90;;;;;;4991127;28;20464;-57
2023/10/14 05:03:47;;;;;;;4.50;1.73;;;16.10;99.90;;;;;;4993371;28;20472;-58
2023/10/14 05:06:15;;;;;;;2.80;1.50;;;16.00;99.90;;;;;;4990199;28;20481;-58
2023/10/14 05:08:45;;;;;;;4.60;1.47;;;15.90;99.90;;;;;;4990768;28;20986;-59
2023/10/14 05:11:13;;;;;;;2.80;1.30;;;15.90;99.90;;;;;;4989341;28;20460;-58
2023/10/14 05:13:42;;;;;;;4.77;1.80;;;15.80;99.90;;;;;;4991297;28;20464;-58
2023/10/14 05:16:16;;;;;;;3.73;1.33;;;15.80;99.90;;;;;;4984658;28;20492;-57
2023/10/14 05:18:58;;;;;;;2.50;1.47;;;15.70;99.90;;;;;;4992033;28;20461;-58
2023/10/14 05:21:36;;;;;;;1.93;1.30;;;15.70;99.90;;;;;;4991495;28;20468;-57
2023/10/14 05:24:03;;;;;;;3.53;1.70;;;15.60;99.90;;;;;;4991683;28;20540;-57
2023/10/14 05:26:35;;;;;;;5.73;1.53;;;15.50;99.90;;;;;;4990782;28;20489;-59
2023/10/14 05:29:11;;;;;;;3.20;1.67;;;15.10;99.90;;;;;;4993930;28;20485;-57
2023/10/14 05:31:37;;;;;;;2.80;1.10;;;14.80;99.90;;;;;;4992102;28;20460;-58
2023/10/14 05:34:04;;;;;;;2.40;1.03;;;14.70;99.90;;;;;;4994809;28;20464;-58
2023/10/14 05:36:34;;;;;;;3.30;1.27;;;14.50;99.90;;;;;;4986512;28;20492;-58
2023/10/14 05:39:02;;;;;;;2.03;0.90;;;14.30;99.90;;;;;;4990738;28;20457;-58
2023/10/14 05:41:29;;;;;;;3.17;1.30;;;14.00;99.90;;;;;;4991966;28;20467;-58
2023/10/14 05:43:55;;;;;;;1.20;0.83;;;13.90;99.90;;;;;;4984476;28;20515;-59
2023/10/14 05:46:22;;;;;;;2.87;0.83;;;13.80;99.90;;;;;;4987071;28;20976;-59
2023/10/14 05:48:52;;;;;;;0.77;0.57;;;13.70;99.90;;;;;;4987922;28;20866;-61
2023/10/14 05:51:19;;;;;;;1.83;0.80;;;13.70;99.90;;;;;;4987508;28;20524;-61
2023/10/14 05:53:47;;;;;;;2.73;0.80;;;13.70;99.90;;;;;;4987071;28;21041;-58
2023/10/14 05:56:15;;;;;;;1.20;0.80;;;13.60;99.90;;;;;;4983610;28;20602;-59
2023/10/14 05:58:41;;;;;;;3.27;0.90;;;13.60;99.90;;;;;;4983908;28;20496;-57
2023/10/14 06:01:09;;;;;;;2.73;1.10;;;13.50;99.90;;;;;;4984414;28;20465;-57
2023/10/14 06:03:36;;;;;;;3.73;1.20;;;13.50;99.90;;;;;;4986913;28;20522;-57
2023/10/14 06:06:02;;;;;;;1.43;0.80;;;13.50;99.90;;;;;;4987571;28;20488;-58
2023/10/14 06:08:32;;;;;;;3.17;0.70;;;13.50;99.90;;;;;;4988414;28;20465;-55
2023/10/14 06:11:00;;;;;;;4.53;1.17;;;13.40;99.90;;;;;;4987091;28;20495;-59
2023/10/14 06:13:27;;;;;;;2.87;0.70;;;13.30;99.90;;;;;;4985581;28;20507;-56
2023/10/14 06:15:54;;;;;;;5.37;0.90;;;13.30;99.90;;;;;;4986621;28;20876;-56
2023/10/14 06:18:21;;;;;;;0.90;0.80;;;13.30;99.90;;;;;;4990146;28;20464;-58
2023/10/14 06:20:47;;;;;;;1.63;0.80;;;13.30;99.90;;;;;;4981973;28;20519;-59
2023/10/14 06:23:14;;;;;;;1.87;0.80;;;13.20;99.90;;;;;;4993558;28;20463;-58
2023/10/14 06:25:41;;;;;;;1.70;0.70;;;13.30;99.90;;;;;;4987705;28;20480;-59
2023/10/14 06:28:10;;;;;;;3.53;0.77;;;13.20;99.90;;;;;;4988935;28;20469;-59
2023/10/14 06:30:36;;;;;;;3.90;0.97;;;13.20;99.90;;;;;;4985155;28;20556;-58
2023/10/14 06:33:06;;;;;;;1.30;0.70;;;13.30;99.90;;;;;;4987898;28;20946;-59
2023/10/14 06:35:34;;;;;;;4.83;1.73;;;13.30;99.90;;;;;;4989610;28;20488;-56
2023/10/14 06:38:03;;;;;;;2.07;1.00;;;13.30;99.90;;;;;;4982491;28;20520;-56
2023/10/14 06:40:35;;;;;;;2.00;1.00;;;13.30;99.90;;;;;;4989459;28;20464;-57
2023/10/14 06:43:06;;;;;;;2.80;1.00;;;13.30;99.90;;;;;;4985908;28;20479;-57
2023/10/14 06:45:35;;;;;;;3.87;2.33;;;13.30;99.90;;;;;;4991130;28;20487;-58
2023/10/14 06:48:03;;;;;;;6.30;3.83;;;13.30;99.90;;;;;;4986628;28;21045;-58
2023/10/14 06:50:31;;;;;;;4.60;2.40;;;13.20;99.90;;;;;;4987014;28;20456;-58
2023/10/14 06:52:58;;;;;;;6.10;3.27;;;13.20;99.90;;;;;;4986902;28;20460;-58
2023/10/14 06:55:26;;;;;;;17.63;8.20;;;13.30;99.90;;;;;;4987189;28;20496;-56
2023/10/14 06:57:54;;;;;;;8.40;4.63;;;13.30;99.90;;;;;;4980293;28;20471;-58
2023/10/14 07:00:29;;;;;;;10.90;6.00;;;13.20;99.90;;;;;;4986816;28;20456;-57
2023/10/14 07:02:59;;;;;;;6.30;2.67;;;13.30;99.90;;;;;;4985764;28;20492;-57
2023/10/14 07:05:28;;;;;;;33.13;16.93;;;13.20;99.90;;;;;;4986128;28;20842;-59
2023/10/14 07:07:57;;;;;;;8.03;5.30;;;13.30;99.90;;;;;;4989451;28;20463;-58
2023/10/14 07:10:28;;;;;;;7.43;4.17;;;13.30;99.90;;;;;;4987015;28;20472;-58
2023/10/14 07:12:58;;;;;;;5.13;3.37;;;13.30;99.90;;;;;;4983860;28;20465;-57
2023/10/14 07:15:25;;;;;;;11.00;4.10;;;13.30;99.90;;;;;;4981918;28;20511;-57
2023/10/14 07:17:54;;;;;;;11.67;4.00;;;13.30;82.30;;;;;;4979896;28;20464;-58
2023/10/14 07:20:23;;;;;;;4.67;2.13;;;13.40;99.90;;;;;;4987228;28;20471;-59
2023/10/14 07:22:49;;;;;;;4.80;2.70;;;13.40;89.00;;;;;;4986241;28;20559;-58
2023/10/14 07:25:18;;;;;;;10.30;1.93;;;13.40;20.90;;;;;;4982102;28;20468;-57
2023/10/14 07:27:44;;;;;;;3.97;1.93;;;13.40;72.00;;;;;;4981398;28;20982;-57
2023/10/14 07:30:14;;;;;;;3.80;1.97;;;13.40;76.70;;;;;;4987547;28;20472;-58
2023/10/14 07:32:43;;;;;;;6.47;1.83;;;13.30;77.90;;;;;;4986927;28;20978;-57
2023/10/14 07:35:11;;;;;;;2.10;1.40;;;13.30;84.00;;;;;;4983568;28;20480;-57
2023/10/14 07:37:42;;;;;;;5.03;2.40;;;13.20;77.20;;;;;;4985483;28;20461;-57
2023/10/14 07:40:12;;;;;;;5.70;1.50;;;13.20;85.40;;;;;;4987606;28;20457;-57
2023/10/14 07:42:39;;;;;;;2.83;1.67;;;13.20;99.90;;;;;;4984385;28;20460;-56
2023/10/14 07:45:10;;;;;;;2.93;1.43;;;13.30;99.90;;;;;;4984471;28;20483;-57
2023/10/14 07:47:37;;;;;;;5.60;1.57;;;13.30;99.90;;;;;;4987143;28;20472;-57
2023/10/14 07:50:09;;;;;;;3.77;1.80;;;13.40;99.90;;;;;;4986702;28;20468;-57
2023/10/14 07:52:36;;;;;;;6.70;2.10;;;13.50;73.70;;;;;;4985986;28;20468;-57
2023/10/14 07:55:05;;;;;;;5.43;1.83;;;13.60;21.40;;;;;;4988693;28;20540;-57
2023/10/14 07:57:32;;;;;;;3.63;1.53;;;13.70;40.50;;;;;;4987471;28;20566;-56
2023/10/14 08:00:09;;;;;;;10.00;1.63;;;13.80;43.60;;;;;;4991697;28;20477;-57
2023/10/14 08:02:36;;;;;;;11.30;1.47;;;13.70;53.10;;;;;;4990008;28;20464;-56
2023/10/14 08:05:05;;;;;;;8.23;1.90;;;13.80;47.30;;;;;;4989879;28;20816;-56
2023/10/14 08:07:33;;;;;;;7.23;1.50;;;13.80;48.50;;;;;;4987541;28;20531;-55
2023/10/14 08:10:16;;;;;;;5.73;1.10;;;13.90;58.70;;;;;;4995685;28;20464;-57
2023/10/14 08:12:44;;;;;;;9.70;1.80;;;13.90;63.90;;;;;;4987091;28;21078;-59
2023/10/14 08:15:12;;;;;;;8.33;1.63;;;13.90;59.30;;;;;;4990101;28;20460;-59
2023/10/14 08:17:40;;;;;;;4.40;1.33;;;13.90;71.00;;;;;;4986472;28;20833;-57
2023/10/14 08:20:12;;;;;;;4.40;1.40;;;14.00;74.50;;;;;;4985422;28;20468;-59
2023/10/14 08:22:39;;;;;;;5.50;1.20;;;14.10;70.60;;;;;;4992183;28;20487;-59
2023/10/14 08:25:07;;;;;;;7.30;1.70;;;14.20;82.60;;;;;;4988918;28;20460;-59
2023/10/14 08:27:34;;;;;;;9.57;2.10;;;14.30;89.60;;;;;;4992822;28;20902;-59
2023/10/14 08:30:10;;;;;;;8.30;1.60;;;14.30;94.70;;;;;;4991689;28;20465;-60
2023/10/14 08:32:37;;;;;;;9.13;2.47;;;14.30;96.50;;;;;;4992547;28;21065;-60
2023/10/14 08:35:14;;;;;;;8.70;2.07;;;14.20;99.90;;;;;;4988548;28;21028;-60
2023/10/14 08:37:42;;;;;;;8.70;1.70;;;14.40;99.90;;;;;;4993859;28;20957;-58
2023/10/14 08:40:15;;;;;;;13.27;2.80;;;14.30;99.90;;;;;;4992971;28;20460;-58
2023/10/14 08:42:49;;;;;;;21.33;3.50;;;14.30;99.90;;;;;;4981915;28;20511;-59
2023/10/14 08:45:19;;;;;;;8.20;1.80;;;14.50;99.90;;;;;;4985390;28;20566;-58
2023/10/14 08:47:50;;;;;;;11.63;3.23;;;14.40;99.90;;;;;;4996076;28;20515;-59
2023/10/14 08:50:18;;;;;;;10.73;2.83;;;14.50;99.90;;;;;;4990495;28;20492;-58
2023/10/14 08:52:47;;;;;;;14.90;2.30;;;14.60;99.90;;;;;;4984423;28;21304;-59
2023/10/14 08:55:15;;;;;;;8.50;2.57;;;14.50;99.90;;;;;;4993078;28;20441;-57
2023/10/14 08:57:44;;;;;;;11.70;2.90;;;14.50;99.90;;;;;;4989960;28;20828;-58
2023/10/14 09:00:12;;;;;;;8.57;2.47;;;14.50;99.90;;;;;;4993930;28;20532;-58
2023/10/14 09:02:41;;;;;;;5.13;1.60;;;14.70;99.90;;;;;;4997083;28;20469;-59
2023/10/14 09:05:11;;;;;;;13.00;2.13;;;14.60;99.90;;;;;;4993496;28;20449;-59
2023/10/14 09:07:39;;;;;;;12.33;2.60;;;14.80;99.90;;;;;;4992277;28;20465;-58
2023/10/14 09:10:07;;;;;;;8.93;2.20;;;14.90;99.90;;;;;;4990038;28;20604;-58
2023/10/14 09:12:33;;;;;;;7.20;2.40;;;15.00;99.90;;;;;;4985889;28;20547;-58
2023/10/14 09:15:00;;;;;;;11.20;2.80;;;15.10;99.90;;;;;;4982994;28;20496;-58
2023/10/14 09:17:28;;;;;;;8.33;2.40;;;15.20;99.90;;;;;;4988767;28;20520;-58
2023/10/14 09:19:56;;;;;;;21.03;2.53;;;15.40;99.90;;;;;;4984997;28;20492;-58
2023/10/14 09:22:24;;;;;;;15.50;3.00;;;15.70;99.90;;;;;;4985488;28;20520;-57
2023/10/14 09:24:52;;;;;;;12.17;2.87;;;16.00;28.60;;;;;;4987288;28;20501;-59
2023/10/14 09:27:19;;;;;;;7.60;2.50;;;15.70;40.80;;;;;;4990071;28;20476;-58
2023/10/14 09:29:46;;;;;;;16.43;3.13;;;15.60;44.40;;;;;;4984682;28;20456;-58
2023/10/14 09:32:14;;;;;;;11.53;2.30;;;15.80;50.80;;;;;;4983655;28;21007;-58
2023/10/14 09:34:41;;;;;;;13.90;2.30;;;16.00;48.30;;;;;;4990022;28;20570;-58
2023/10/14 09:37:12;;;;;;;14.90;2.50;;;16.40;85.80;;;;;;5001041;28;20603;-58
2023/10/14 09:39:41;;;;;;;9.50;2.13;;;16.40;99.90;;;;;;4995768;28;20461;-59
2023/10/14 09:42:10;;;;;;;9.10;2.33;;;16.20;92.10;;;;;;4975604;28;21238;-59
2023/10/14 09:44:40;;;;;;;24.67;3.60;;;15.80;76.20;;;;;;4969810;28;20959;-58
2023/10/14 09:47:09;;;;;;;11.00;2.97;;;15.80;72.90;;;;;;4967789;28;20892;-58
2023/10/14 09:49:38;;;;;;;10.70;2.60;;;15.50;80.20;;;;;;4976826;28;20487;-59
2023/10/14 09:52:05;;;;;;;13.50;2.47;;;14.90;89.40;;;;;;4984672;28;20464;-59
2023/10/14 09:54:35;;;;;;;8.50;2.17;;;15.20;90.00;;;;;;4987015;28;20487;-59
2023/10/14 09:57:02;;;;;;;8.30;2.80;;;15.10;94.10;;;;;;4982503;28;20574;-59
2023/10/14 09:59:31;;;;;;;10.30;2.80;;;15.60;97.30;;;;;;4992606;28;20465;-58
2023/10/14 10:01:57;;;;;;;14.00;2.97;;;15.90;99.90;;;;;;4983041;28;20948;-58
2023/10/14 10:04:30;;;;;;;13.30;2.37;;;16.00;99.90;;;;;;4984174;28;20539;-57
2023/10/14 10:07:08;;;;;;;16.23;2.57;;;16.60;99.90;;;;;;4983929;28;20567;-58
2023/10/14 10:10:10;;;;;;;14.63;2.93;;;16.70;99.90;;;;;;4983045;28;20460;-54
2023/10/14 10:12:38;;;;;;;10.87;2.13;;;15.70;99.90;;;;;;4983844;28;20517;-55
2023/10/14 10:15:07;;;;;;;9.73;2.33;;;15.40;99.90;;;;;;4983608;28;20461;-55
2023/10/14 10:17:34;;;;;;;15.23;2.30;;;15.40;99.90;;;;;;4986811;28;20484;-57
2023/10/14 10:20:10;;;;;;;15.77;2.73;;;15.30;99.90;;;;;;4984192;28;20522;-55
2023/10/14 10:22:44;;;;;;;7.53;1.97;;;15.30;99.90;;;;;;4986015;28;20522;-55
2023/10/14 10:25:16;;;;;;;7.43;2.17;;;15.20;99.90;;;;;;4983649;28;20518;-55
2023/10/14 10:27:44;;;;;;;10.70;3.00;;;15.50;99.90;;;;;;4988654;28;21204;-56
2023/10/14 10:30:14;;;;;;;11.13;2.33;;;15.40;99.90;;;;;;4979506;28;20468;-56
2023/10/14 10:32:46;;;;;;;8.23;1.87;;;15.40;99.90;;;;;;4987188;28;20464;-54
2023/10/14 10:35:16;;;;;;;13.07;2.70;;;15.30;99.90;;;;;;4991629;28;20488;-55
2023/10/14 10:37:47;;;;;;;10.40;1.90;;;15.30;99.90;;;;;;4988673;28;20488;-54
2023/10/14 10:40:17;;;;;;;11.93;2.50;;;15.50;99.90;;;;;;4977829;28;20989;-56
2023/10/14 10:42:47;;;;;;;7.70;3.00;;;15.70;99.90;;;;;;4991007;28;20471;-55
2023/10/14 10:45:20;;;;;;;6.30;1.77;;;15.80;99.90;;;;;;4988032;28;20862;-57
2023/10/14 10:47:51;;;;;;;9.23;2.30;;;16.10;99.90;;;;;;4991971;28;20460;-56
2023/10/14 10:50:18;;;;;;;11.77;3.13;;;16.10;99.90;;;;;;4992661;28;20465;-56
2023/10/14 10:52:54;;;;;;;11.20;2.30;;;16.10;99.90;;;;;;4992499;28;20447;-56
2023/10/14 10:55:24;;;;;;;11.43;2.67;;;16.10;99.90;;;;;;4986261;28;20479;-54
2023/10/14 10:58:01;;;;;;;13.80;3.13;;;16.30;99.90;;;;;;4986729;28;20494;-55
2023/10/14 11:00:30;;;;;;;10.43;2.30;;;16.20;99.90;;;;;;4980095;28;20873;-55
2023/10/14 11:02:56;;;;;;;11.40;2.50;;;15.90;99.90;;;;;;4987986;28;20459;-56
2023/10/14 11:05:25;;;;;;;9.87;2.30;;;15.60;99.90;;;;;;4990267;28;20487;-55
2023/10/14 11:07:52;;;;;;;9.60;2.50;;;15.60;99.90;;;;;;4988669;28;20463;-55
2023/10/14 11:10:25;;;;;;;14.97;2.87;;;15.60;99.90;;;;;;4987856;28;20476;-57
2023/10/14 11:12:54;;;;;;;14.90;2.90;;;15.70;99.90;;;;;;4975004;28;20460;-57
2023/10/14 11:15:21;;;;;;;8.10;2.20;;;15.80;99.90;;;;;;4967612;28;20484;-57
2023/10/14 11:17:52;;;;;;;9.13;2.30;;;15.70;99.90;;;;;;4975195;28;21285;-56
2023/10/14 11:20:19;;;;;;;16.13;2.90;;;15.80;99.90;;;;;;4974883;28;20464;-56
2023/10/14 11:22:46;;;;;;;11.40;2.77;;;15.90;99.90;;;;;;4971314;28;20492;-55
2023/10/14 11:25:13;;;;;;;16.43;2.27;;;16.10;99.90;;;;;;4973138;28;20550;-55
2023/10/14 11:27:42;;;;;;;9.50;2.03;;;16.10;99.90;;;;;;4975705;28;20460;-55
2023/10/14 11:30:12;;;;;;;7.40;2.63;;;15.90;99.90;;;;;;4989881;28;20469;-56
2023/10/14 11:32:46;;;;;;;17.13;2.33;;;15.80;99.90;;;;;;4983798;28;20837;-57
2023/10/14 11:35:16;;;;;;;8.10;2.53;;;15.70;99.90;;;;;;4991851;28;20449;-55
2023/10/14 11:37:42;;;;;;;11.70;2.50;;;15.70;99.90;;;;;;4995066;28;20507;-56
2023/10/14 11:40:13;;;;;;;11.47;2.90;;;15.70;99.90;;;;;;4995007;28;20479;-56
2023/10/14 11:42:42;;;;;;;10.00;3.37;;;15.80;99.90;;;;;;4994321;28;20862;-56
2023/10/14 11:45:10;;;;;;;14.13;2.73;;;16.00;99.90;;;;;;4992916;28;20934;-55
2023/10/14 11:47:39;;;;;;;17.33;2.43;;;16.00;99.90;;;;;;4986547;28;20492;-55
2023/10/14 11:50:12;;;;;;;12.53;2.73;;;16.00;99.90;;;;;;4995480;28;20529;-56
2023/10/14 11:52:42;;;;;;;10.70;2.37;;;16.00;99.90;;;;;;4996030;28;20456;-55
2023/10/14 11:55:13;;;;;;;8.33;2.10;;;15.80;99.90;;;;;;4995919;28;20789;-55
2023/10/14 11:57:42;;;;;;;22.23;4.73;;;16.00;99.90;;;;;;4984200;28;20488;-57
2023/10/14 12:00:11;;;;;;;12.97;2.47;;;15.80;99.90;;;;;;4986223;28;20449;-57
2023/10/14 12:02:39;;;;;;;11.90;2.53;;;15.80;99.90;;;;;;4985666;28;20534;-55
2023/10/14 12:05:06;;;;;;;10.40;2.60;;;15.90;99.90;;;;;;4995724;28;20460;-55
2023/10/14 12:07:33;;;;;;;11.40;2.27;;;16.30;99.90;;;;;;4981762;28;20530;-55
2023/10/14 12:10:00;;;;;;;8.83;3.00;;;16.60;99.90;;;;;;4983144;28;20445;-55
2023/10/14 12:12:27;;;;;;;15.67;3.43;;;18.10;99.90;;;;;;4987630;28;20445;-56
2023/10/14 12:14:55;;;;;;;9.87;2.63;;;19.20;99.90;;;;;;4984410;28;20455;-56
2023/10/14 12:17:23;;;;;;;11.63;2.90;;;19.30;99.90;;;;;;4993550;28;20518;-57
2023/10/14 12:19:49;;;;;;;15.77;2.80;;;17.10;99.90;;;;;;4986983;28;20488;-56
2023/10/14 12:22:16;;;;;;;10.50;2.27;;;17.10;99.90;;;;;;4995633;28;20506;-58
2023/10/14 12:24:43;;;;;;;9.97;3.00;;;16.60;99.90;;;;;;4995280;28;20445;-58
2023/10/14 12:27:14;;;;;;;10.07;3.00;;;16.30;99.90;;;;;;4989148;28;20530;-59
2023/10/14 12:29:40;;;;;;;9.17;2.80;;;16.10;99.90;;;;;;4993707;28;20496;-59
2023/10/14 12:32:12;;;;;;;12.47;1.90;;;15.90;99.90;;;;;;4989371;28;20903;-60
2023/10/14 12:34:43;;;;;;;7.53;2.37;;;15.80;99.90;;;;;;4991580;28;20880;-60
2023/10/14 12:37:17;;;;;;;12.70;3.23;;;15.80;99.90;;;;;;4992599;28;20539;-60
2023/10/14 12:39:48;;;;;;;16.97;3.20;;;15.70;99.90;;;;;;4994503;28;20641;-60
2023/10/14 12:42:17;;;;;;;14.83;2.97;;;15.70;99.90;;;;;;4994425;28;20803;-59
2023/10/14 12:44:43;;;;;;;18.00;2.73;;;15.70;99.90;;;;;;4989397;28;20511;-60
2023/10/14 12:47:11;;;;;;;12.53;3.00;;;15.80;99.90;;;;;;4994921;28;20457;-59
2023/10/14 12:49:38;;;;;;;20.37;2.40;;;15.60;99.90;;;;;;4994788;28;20453;-60
2023/10/14 12:52:12;;;;;;;9.37;2.37;;;15.40;99.90;;;;;;4992874;28;20826;-59
2023/10/14 12:54:39;;;;;;;6.63;2.33;;;15.60;99.90;;;;;;4986614;28;20472;-59
2023/10/14 12:57:08;;;;;;;8.50;2.17;;;15.70;99.90;;;;;;4991203;28;20491;-60